MDSD METAR and TAF | Updated Today

MDSD METAR

Las Américas International Airport

Observation time: 22 min. ago

MDSD 062000Z 14007KT 9999 FEW020CB SCT022 31/24 Q1012 CB/NW/N

Need help? Read our tutorial on how to read METARs or read the parsed version below.

Las Américas International Airport (MDSD) METAR

  • Weather conditions on Thu, 06 Oct 2022 20:00:00 +0000 (22 min. ago):
  • Present conditions: Dry
  • Clouds: A few at 610 meters, cumulonimbus; scattered at 671 meters
  • Visibility: Greater than 10 km
  • Wind: 140 degrees at 7 knots
  • Temperature: 31 celsius
  • Dew point: 24 celsius
  • Pressure: 1012 millibars
  • Remarks: None


Useful to know...

MDSD TAF

Las Américas International Airport

TAF MDSD 061600Z 0618/0718 14010KT 9999 FEW020CB SCT022 BECMG 0622/0700 04004KT
Observation time: 4:22 hr. ago
Need help? Read our tutorial on how to read TAFs or read the parsed version below.

Parsed version of TAF for Las Américas International Airport (MDSD)

  • From 06 October at 18:00 UTC, to day 07 of the month at 18:00 UTC
  • Clouds: A few at 610 meters, cumulonimbus; scattered at 671 meters
  • Visibility: Greater than 10 km
  • Wind: 140 degrees at 10
  • Expected to arise soon, from 06 October at 22:00 UTC, to day 07 of the month at 00:00 UTC
  • Wind: 40 degrees at 4